Time;durP1;ratioP1;P1;durP2;ratioP2;P2;SDS_P1;SDS_P2;PMS_P1;PMS_P2;Temp;Humidity;BMP_temperature;BMP_pressure;BME280_temperature;BME280_humidity;BME280_pressure;Samples;Min_cycle;Max_cycle;Signal;HPM_P1;HPM_P2
2023/04/26 00:00:18;;;;;;;;;3.00;2.00;;;;;16.80;75.77;100416.09;5075244;27;45411;-77
2023/04/26 00:02:44;;;;;;;;;3.67;3.67;;;;;16.91;75.91;100434.63;5075382;27;45427;-74
2023/04/26 00:05:10;;;;;;;;;4.00;3.00;;;;;16.82;75.72;100411.72;5078511;27;45554;-77
2023/04/26 00:07:36;;;;;;;;;2.00;2.00;;;;;17.00;75.36;100436.41;5078365;27;45489;-73
2023/04/26 00:10:04;;;;;;;;;3.67;2.00;;;;;16.99;74.50;100430.25;5077337;28;45717;-78
2023/04/26 00:12:29;;;;;;;;;2.00;2.00;;;;;16.85;74.91;100413.50;5078589;27;45295;-76
2023/04/26 00:14:55;;;;;;;;;2.67;2.67;;;;;16.92;75.28;100424.97;5078423;27;45450;-76
2023/04/26 00:17:20;;;;;;;;;2.67;2.67;;;;;16.90;75.33;100425.81;5078348;27;46573;-77
2023/04/26 00:19:46;;;;;;;;;2.00;2.00;;;;;16.82;74.61;100413.50;5078567;28;45333;-75
2023/04/26 00:22:12;;;;;;;;;2.33;1.33;;;;;17.01;74.53;100440.78;5085793;27;45621;-77
2023/04/26 00:24:37;;;;;;;;;4.00;3.00;;;;;16.93;74.46;100426.69;5078410;27;45472;-73
2023/04/26 00:27:07;;;;;;;;;2.00;1.00;;;;;17.04;73.75;100449.59;5075637;28;46336;-76
2023/04/26 00:29:34;;;;;;;;;2.00;1.00;;;;;16.97;73.59;100432.00;5079244;27;45994;-78
2023/04/26 00:31:59;;;;;;;;;2.00;2.00;;;;;16.96;73.63;100426.72;5079419;27;45550;-77
2023/04/26 00:34:37;;;;;;;;;3.00;2.67;;;;;17.01;73.65;100435.50;5079778;27;45380;-73
2023/04/26 00:37:04;;;;;;;;;2.00;1.67;;;;;17.03;73.87;100439.03;5079684;27;45528;-77
2023/04/26 00:39:30;;;;;;;;;3.67;3.00;;;;;16.93;73.41;100421.41;5095389;27;45503;-78
2023/04/26 00:41:56;;;;;;;;;3.00;3.00;;;;;17.00;73.91;100432.00;5079809;27;45572;-77
2023/04/26 00:44:21;;;;;;;;;2.00;2.00;;;;;16.89;73.36;100415.25;5078450;28;45412;-73
2023/04/26 00:46:50;;;;;;;;;2.00;1.33;;;;;16.85;74.13;100414.41;5079378;27;46078;-74
2023/04/26 00:49:17;;;;;;;;;2.00;2.00;;;;;16.79;74.25;100408.16;5079392;27;45222;-78
2023/04/26 00:51:44;;;;;;;;;2.00;1.33;;;;;16.90;73.89;100424.94;5079680;27;45316;-77
2023/04/26 00:54:10;;;;;;;;;2.00;2.00;;;;;16.79;73.64;100403.78;5080002;27;45483;-78
2023/04/26 00:56:38;;;;;;;;;1.00;1.00;;;;;16.76;73.29;100393.22;5077449;28;45480;-74
2023/04/26 00:59:03;;;;;;;;;1.00;1.00;;;;;16.77;73.46;100409.91;5078945;27;45371;-78
2023/04/26 01:01:29;;;;;;;;;2.00;1.00;;;;;16.45;73.65;100374.69;5079479;28;45447;-73
2023/04/26 01:03:55;;;;;;;;;2.00;1.00;;;;;16.62;73.88;100401.09;5078710;28;45184;-73
2023/04/26 01:06:21;;;;;;;;;2.33;2.00;;;;;16.60;73.79;100396.69;5079942;27;46516;-73
2023/04/26 01:08:52;;;;;;;;;1.00;1.00;;;;;16.55;73.97;100386.13;5078084;28;45370;-74
2023/04/26 01:11:21;;;;;;;;;2.00;2.00;;;;;16.62;74.20;100400.22;5079379;27;45250;-76
2023/04/26 01:13:50;;;;;;;;;1.00;1.00;;;;;16.50;74.37;100383.47;5079419;27;45282;-76
2023/04/26 01:16:18;;;;;;;;;2.00;1.00;;;;;16.53;74.51;100387.00;5078166;28;46190;-76
2023/04/26 01:18:53;;;;;;;;;2.33;2.00;;;;;16.56;74.53;100390.53;5094963;27;45175;-73
2023/04/26 01:21:23;;;;;;;;;2.00;1.67;;;;;16.60;74.93;100387.03;5078014;28;45502;-73
2023/04/26 01:23:50;;;;;;;;;1.33;1.00;;;;;16.60;74.75;100394.06;5079519;27;45534;-77
2023/04/26 01:26:16;;;;;;;;;1.33;1.00;;;;;16.57;75.23;100394.03;5079003;28;46570;-77
2023/04/26 01:28:42;;;;;;;;;0.67;0.67;;;;;16.53;75.30;100384.38;5077640;28;45253;-73
2023/04/26 01:31:08;;;;;;;;;3.00;2.00;;;;;16.40;75.28;100363.25;5078878;27;45179;-73
2023/04/26 01:33:33;;;;;;;;;1.00;1.00;;;;;16.42;75.63;100377.31;5077818;28;45501;-74
2023/04/26 01:35:59;;;;;;;;;3.00;2.00;;;;;16.42;75.26;100366.75;5078871;27;45651;-76
2023/04/26 01:38:24;;;;;;;;;1.33;1.33;;;;;16.49;75.60;100384.38;5077899;28;45446;-73
2023/04/26 01:40:50;;;;;;;;;2.00;2.00;;;;;16.36;75.12;100353.56;5078846;27;45449;-76
2023/04/26 01:43:17;;;;;;;;;3.00;1.00;;;;;16.33;75.10;100340.34;5079042;27;45274;-77
2023/04/26 01:45:46;;;;;;;;;1.00;1.00;;;;;16.44;75.12;100370.28;5077602;28;45563;-77
2023/04/26 01:48:12;;;;;;;;;2.00;1.00;;;;;16.36;75.31;100360.59;5078781;27;45581;-78
2023/04/26 01:50:38;;;;;;;;;1.00;1.00;;;;;16.39;75.55;100356.19;5077400;28;45457;-79
2023/04/26 01:53:03;;;;;;;;;1.67;1.00;;;;;16.28;75.99;100344.75;5079298;27;45210;-78
2023/04/26 01:55:29;;;;;;;;;1.67;1.00;;;;;16.18;76.08;100332.41;5076651;28;47804;-74
2023/04/26 01:57:55;;;;;;;;;2.67;2.00;;;;;16.24;76.54;100341.22;5078798;27;45325;-79
2023/04/26 02:00:21;;;;;;;;;2.00;2.00;;;;;16.28;76.94;100350.91;5078608;27;45410;-76
2023/04/26 02:02:46;;;;;;;;;1.00;1.00;;;;;16.25;76.66;100340.34;5079313;27;45430;-78
2023/04/26 02:05:12;;;;;;;;;1.00;1.00;;;;;16.38;76.71;100359.72;5078317;27;45710;-74
2023/04/26 02:07:37;;;;;;;;;2.00;1.00;;;;;16.26;76.79;100334.19;5076473;28;45363;-75
2023/04/26 02:10:03;;;;;;;;;2.00;1.67;;;;;16.36;76.95;100345.66;5078576;28;45426;-77
2023/04/26 02:12:29;;;;;;;;;2.00;2.00;;;;;16.39;77.15;100339.50;5077307;28;45500;-74
2023/04/26 02:14:55;;;;;;;;;1.33;1.33;;;;;16.47;77.25;100349.22;5078315;27;46082;-79
2023/04/26 02:17:21;;;;;;;;;1.00;1.00;;;;;16.32;77.40;100327.19;5078221;28;45468;-78
2023/04/26 02:19:47;;;;;;;;;1.00;1.00;;;;;16.38;77.27;100346.53;5078346;28;45514;-78
2023/04/26 02:22:12;;;;;;;;;1.00;1.00;;;;;16.35;77.53;100343.00;5078402;27;45494;-79
2023/04/26 02:24:38;;;;;;;;;2.67;2.00;;;;;16.37;77.70;100342.13;5078089;27;46379;-74
2023/04/26 02:27:04;;;;;;;;;1.00;1.00;;;;;16.36;77.91;100336.88;5074986;28;45347;-78
2023/04/26 02:29:30;;;;;;;;;1.00;1.00;;;;;16.41;77.07;100336.00;5078457;27;45422;-74
2023/04/26 02:31:57;;;;;;;;;1.00;1.00;;;;;16.33;76.96;100316.63;5078608;27;45233;-78
2023/04/26 02:34:22;;;;;;;;;1.00;1.00;;;;;16.56;77.26;100352.75;5077543;27;47080;-75
2023/04/26 02:36:48;;;;;;;;;1.33;1.33;;;;;16.47;77.07;100337.75;5076148;28;46093;-75
2023/04/26 02:39:14;;;;;;;;;1.33;1.33;;;;;16.48;77.37;100339.53;5077754;27;45466;-74
2023/04/26 02:41:39;;;;;;;;;1.00;1.00;;;;;16.41;77.54;100327.19;5078142;28;45445;-74
2023/04/26 02:44:06;;;;;;;;;1.00;1.00;;;;;16.44;77.94;100337.78;5077616;28;46086;-78
2023/04/26 02:46:31;;;;;;;;;1.33;1.33;;;;;16.37;77.99;100321.03;5077626;28;45359;-76
2023/04/26 02:48:57;;;;;;;;;1.00;1.00;;;;;16.40;78.13;100326.31;5078122;27;45408;-78
2023/04/26 02:51:22;;;;;;;;;2.67;2.00;;;;;16.34;78.19;100317.53;5077397;27;45790;-78
2023/04/26 02:53:48;;;;;;;;;2.00;1.67;;;;;16.44;78.11;100324.59;5077455;28;45474;-75
2023/04/26 02:56:13;;;;;;;;;2.00;1.67;;;;;16.39;78.22;100328.94;5092582;27;45381;-75
2023/04/26 02:58:39;;;;;;;;;1.00;1.00;;;;;16.38;78.36;100317.53;5077583;27;45475;-76
2023/04/26 03:01:05;;;;;;;;;0.00;0.00;;;;;16.41;78.08;100319.28;5078165;28;45367;-77
2023/04/26 03:03:31;;;;;;;;;2.00;2.00;;;;;16.35;78.42;100314.88;5078087;27;46378;-77
2023/04/26 03:05:57;;;;;;;;;2.00;1.00;;;;;16.41;78.54;100319.28;5077808;27;45430;-77
2023/04/26 03:08:22;;;;;;;;;4.00;2.33;;;;;16.42;78.25;100321.94;5076267;28;45383;-78
2023/04/26 03:10:47;;;;;;;;;1.00;1.00;;;;;16.47;78.52;100325.47;5076516;28;45448;-74
2023/04/26 03:13:14;;;;;;;;;2.00;1.33;;;;;15.99;78.36;100241.88;5076192;28;47090;-78
2023/04/26 03:15:43;;;;;;;;;1.00;1.00;;;;;16.38;78.29;100317.53;5092882;27;45522;-77
2023/04/26 03:18:09;;;;;;;;;2.00;2.00;;;;;16.38;78.48;100314.91;5076209;28;45928;-77
2023/04/26 03:20:34;;;;;;;;;2.00;2.00;;;;;16.45;78.57;100319.31;5077585;28;45385;-74
2023/04/26 03:23:00;;;;;;;;;2.33;1.00;;;;;16.49;78.94;100328.09;5092846;27;45542;-78
2023/04/26 03:25:26;;;;;;;;;1.00;1.00;;;;;16.48;78.27;100324.59;5077331;28;45413;-78
2023/04/26 03:27:51;;;;;;;;;1.00;1.00;;;;;16.46;78.45;100323.69;5076096;28;45247;-75
2023/04/26 03:30:17;;;;;;;;;1.00;0.00;;;;;16.43;78.43;100310.53;5076264;28;45600;-76
2023/04/26 03:32:42;;;;;;;;;0.67;0.00;;;;;16.32;78.47;100293.81;5075971;28;46282;-77
2023/04/26 03:35:09;;;;;;;;;0.67;0.67;;;;;16.34;78.57;100297.31;5077104;27;45418;-74
2023/04/26 03:37:34;;;;;;;;;1.00;1.00;;;;;16.40;78.60;100315.78;5077462;27;45327;-75
2023/04/26 03:40:00;;;;;;;;;2.00;1.67;;;;;16.31;78.59;100292.03;5079395;28;45627;-77
2023/04/26 03:42:25;;;;;;;;;0.00;0.00;;;;;16.39;78.53;100308.72;5096407;27;46890;-78
2023/04/26 03:44:51;;;;;;;;;0.00;0.00;;;;;16.33;78.99;100297.31;5080853;28;45350;-78
2023/04/26 03:47:17;;;;;;;;;1.00;1.00;;;;;16.41;78.95;100307.00;5096265;27;45375;-76
2023/04/26 03:49:42;;;;;;;;;0.33;0.33;;;;;16.36;79.00;100294.69;5080999;27;45453;-74
2023/04/26 03:52:08;;;;;;;;;0.67;0.00;;;;;16.49;79.15;100312.28;5080507;27;45638;-77
2023/04/26 03:54:34;;;;;;;;;1.00;1.00;;;;;16.53;78.97;100307.91;5081051;27;45312;-78
2023/04/26 03:56:59;;;;;;;;;1.00;1.00;;;;;16.45;78.90;100292.06;5080372;27;45381;-77
2023/04/26 03:59:25;;;;;;;;;1.00;1.00;;;;;16.41;78.87;100280.66;5079589;28;45755;-77
2023/04/26 04:01:50;;;;;;;;;0.33;0.00;;;;;16.41;78.89;100280.66;5079265;28;46413;-75
2023/04/26 04:04:16;;;;;;;;;1.00;1.00;;;;;16.36;78.83;100269.19;5080652;28;45303;-76
2023/04/26 04:06:41;;;;;;;;;1.00;1.00;;;;;16.42;79.03;100276.25;5080790;28;45246;-76
2023/04/26 04:09:07;;;;;;;;;0.00;0.00;;;;;16.44;79.02;100272.72;5080861;28;45370;-75
2023/04/26 04:11:32;;;;;;;;;1.67;1.00;;;;;16.46;79.03;100259.56;5081925;27;45569;-78
2023/04/26 04:13:58;;;;;;;;;1.00;1.00;;;;;16.46;78.97;100265.69;5080723;28;45431;-78
2023/04/26 04:16:23;;;;;;;;;1.00;1.00;;;;;16.38;78.80;100243.72;5081814;28;45496;-76
2023/04/26 04:18:49;;;;;;;;;1.33;0.00;;;;;16.49;78.49;100265.72;5081846;27;45401;-78
2023/04/26 04:21:14;;;;;;;;;0.00;0.00;;;;;16.53;78.30;100253.38;5080060;28;45506;-75
2023/04/26 04:23:41;;;;;;;;;1.00;1.00;;;;;16.62;78.40;100268.38;5083067;27;45517;-78
2023/04/26 04:26:06;;;;;;;;;1.00;1.00;;;;;16.48;78.06;100241.97;5084445;27;45259;-75
2023/04/26 04:28:33;;;;;;;;;0.33;0.33;;;;;16.46;78.36;100238.47;5082337;28;45508;-78
2023/04/26 04:30:59;;;;;;;;;0.00;0.00;;;;;16.61;78.20;100259.56;5081761;27;46519;-77
2023/04/26 04:33:27;;;;;;;;;1.00;1.00;;;;;16.58;78.87;100262.19;5081275;27;45185;-76
2023/04/26 04:35:53;;;;;;;;;1.00;1.00;;;;;16.46;78.92;100246.38;5080100;28;45456;-77
2023/04/26 04:38:19;;;;;;;;;1.00;0.00;;;;;16.56;78.94;100271.00;5080257;28;45429;-75
2023/04/26 04:40:48;;;;;;;;;1.00;1.00;;;;;16.47;79.07;100264.84;5080986;27;45378;-75
2023/04/26 04:43:14;;;;;;;;;1.67;1.00;;;;;16.50;79.04;100263.94;5081036;27;45471;-75
2023/04/26 04:45:39;;;;;;;;;1.00;1.00;;;;;16.48;78.49;100249.88;5080604;27;45268;-75
2023/04/26 04:48:05;;;;;;;;;2.00;2.00;;;;;16.49;78.65;100246.34;5080155;28;45464;-75
2023/04/26 04:50:31;;;;;;;;;1.00;1.00;;;;;16.46;78.84;100247.25;5079675;27;45652;-75
2023/04/26 04:52:56;;;;;;;;;0.00;0.00;;;;;16.58;79.02;100263.97;5080648;27;45374;-76
2023/04/26 04:55:22;;;;;;;;;2.00;1.00;;;;;16.60;78.94;100264.84;5079715;28;46028;-75
2023/04/26 04:57:47;;;;;;;;;0.00;0.00;;;;;16.63;79.12;100264.84;5079624;27;45329;-76
2023/04/26 05:00:14;;;;;;;;;2.00;2.00;;;;;16.66;78.97;100268.34;5080178;27;45485;-77
2023/04/26 05:02:40;;;;;;;;;1.00;1.00;;;;;16.60;79.43;100264.84;5077211;28;45472;-74
2023/04/26 05:05:06;;;;;;;;;3.00;3.00;;;;;16.59;78.86;100266.63;5080438;28;45483;-75
2023/04/26 05:07:32;;;;;;;;;0.00;0.00;;;;;16.64;78.30;100263.97;5080146;28;45547;-75
2023/04/26 05:09:58;;;;;;;;;0.00;0.00;;;;;16.55;78.11;100253.41;5077946;28;47121;-77
2023/04/26 05:12:24;;;;;;;;;0.00;0.00;;;;;16.55;78.03;100254.28;5079788;27;45705;-75
2023/04/26 05:14:50;;;;;;;;;0.00;0.00;;;;;16.64;77.96;100271.88;5079950;28;45530;-74
2023/04/26 05:17:16;;;;;;;;;0.00;0.00;;;;;16.66;78.21;100272.75;5078456;28;45441;-77
2023/04/26 05:19:41;;;;;;;;;0.00;0.00;;;;;16.74;78.31;100289.47;5080120;27;45841;-77
2023/04/26 05:22:07;;;;;;;;;0.00;0.00;;;;;16.72;78.17;100287.72;5081333;28;45482;-76
2023/04/26 05:24:32;;;;;;;;;0.00;0.00;;;;;16.70;77.96;100282.44;5081909;28;45153;-76
2023/04/26 05:26:58;;;;;;;;;0.00;0.00;;;;;16.63;77.99;100270.09;5079008;27;45646;-74
2023/04/26 05:29:28;;;;;;;;;0.00;0.00;;;;;16.78;77.88;100288.59;5077915;28;46234;-75
2023/04/26 05:31:54;;;;;;;;;2.00;2.00;;;;;16.70;77.79;100269.25;5075516;28;45370;-75
2023/04/26 05:34:20;;;;;;;;;0.00;0.00;;;;;16.88;77.52;100286.88;5075853;28;45333;-78
2023/04/26 05:36:45;;;;;;;;;0.00;0.00;;;;;16.82;77.42;100271.03;5077471;28;45372;-77
2023/04/26 05:39:11;;;;;;;;;0.00;0.00;;;;;16.81;77.76;100271.88;5076940;27;46519;-74
2023/04/26 05:41:37;;;;;;;;;0.00;0.00;;;;;16.96;77.79;100297.44;5077374;28;45341;-76
2023/04/26 05:44:02;;;;;;;;;1.00;0.00;;;;;16.96;77.70;100284.22;5077508;28;45600;-74
2023/04/26 05:46:28;;;;;;;;;0.00;0.00;;;;;16.57;77.48;100205.03;5077282;28;45325;-76
2023/04/26 05:48:54;;;;;;;;;0.33;0.00;;;;;17.10;77.43;100287.72;5076994;28;45484;-76
2023/04/26 05:51:20;;;;;;;;;0.00;0.00;;;;;17.27;76.99;100298.28;5076882;28;46040;-77
2023/04/26 05:53:46;;;;;;;;;0.00;0.00;;;;;17.24;76.33;100266.59;5077215;27;45443;-77
2023/04/26 05:56:11;;;;;;;;;1.00;1.00;;;;;17.37;76.01;100272.72;5075759;28;45567;-75
2023/04/26 05:58:37;;;;;;;;;0.67;0.67;;;;;17.47;75.52;100279.75;5075677;28;46603;-73
2023/04/26 06:01:02;;;;;;;;;2.00;1.00;;;;;17.65;75.23;100286.75;5077930;28;45222;-73
2023/04/26 06:03:28;;;;;;;;;1.33;1.33;;;;;17.85;74.86;100295.50;5078280;28;45483;-73
2023/04/26 06:05:53;;;;;;;;;0.00;0.00;;;;;18.12;74.63;100293.63;5078728;28;45295;-74
2023/04/26 06:08:20;;;;;;;;;0.67;0.67;;;;;18.27;74.19;100279.47;5078200;28;46255;-73
2023/04/26 06:10:45;;;;;;;;;1.00;1.00;;;;;18.54;72.29;100288.09;5078228;28;45231;-77
2023/04/26 06:13:11;;;;;;;;;0.00;0.00;;;;;18.65;71.87;100279.19;5076964;28;45507;-73
2023/04/26 06:15:37;;;;;;;;;0.00;0.00;;;;;18.92;71.57;100292.25;5078301;28;45483;-73
2023/04/26 06:18:04;;;;;;;;;0.00;0.00;;;;;18.88;71.02;100287.00;5076447;28;46201;-73
2023/04/26 06:20:30;;;;;;;;;0.00;0.00;;;;;18.88;70.70;100268.47;5078047;28;45340;-74
2023/04/26 06:22:56;;;;;;;;;0.00;0.00;;;;;19.19;71.09;100302.59;5077200;28;45478;-72
2023/04/26 06:25:21;;;;;;;;;0.00;0.00;;;;;19.27;70.65;100284.84;5075906;28;45683;-73
2023/04/26 06:27:48;;;;;;;;;0.00;0.00;;;;;19.42;70.12;100301.53;5077917;28;45965;-74
2023/04/26 06:30:15;;;;;;;;;0.00;0.00;;;;;19.30;70.62;100267.19;5076143;28;45372;-74
2023/04/26 06:32:41;;;;;;;;;0.33;0.33;;;;;19.45;70.19;100296.16;5076738;28;45459;-76
2023/04/26 06:35:07;;;;;;;;;1.00;0.00;;;;;19.23;70.57;100291.09;5078093;27;45545;-77
2023/04/26 06:37:33;;;;;;;;;0.33;0.33;;;;;19.07;70.67;100292.13;5077398;28;45993;-74
2023/04/26 06:40:00;;;;;;;;;0.00;0.00;;;;;18.93;71.06;100267.56;5077541;27;45267;-74
2023/04/26 06:42:26;;;;;;;;;1.00;1.00;;;;;19.13;71.29;100307.94;5077555;27;45643;-76
2023/04/26 06:44:52;;;;;;;;;1.00;1.00;;;;;19.18;71.21;100305.25;5092276;27;45573;-74
2023/04/26 06:47:17;;;;;;;;;2.00;2.00;;;;;19.22;71.26;100297.28;5076274;27;47454;-77
2023/04/26 06:49:44;;;;;;;;;1.00;1.00;;;;;19.32;70.85;100307.78;5072712;28;45688;-73
2023/04/26 06:52:09;;;;;;;;;2.00;2.00;;;;;19.19;71.02;100289.34;5075870;28;45369;-77
2023/04/26 06:54:35;;;;;;;;;3.00;3.00;;;;;19.37;70.57;100316.56;5074809;27;45513;-73
2023/04/26 06:57:01;;;;;;;;;2.00;2.00;;;;;19.33;70.64;100293.66;5076317;27;45582;-75
2023/04/26 06:59:26;;;;;;;;;4.00;3.67;;;;;19.47;70.58;100319.09;5076063;27;45502;-73
2023/04/26 07:01:53;;;;;;;;;2.67;2.67;;;;;19.48;70.37;100299.66;5076376;27;45427;-73
2023/04/26 07:04:19;;;;;;;;;2.67;2.67;;;;;19.66;70.53;100306.53;5076095;28;45442;-73
2023/04/26 07:06:45;;;;;;;;;2.00;2.00;;;;;19.81;70.18;100321.41;5076645;27;45998;-75
2023/04/26 07:09:12;;;;;;;;;1.00;1.00;;;;;20.12;69.24;100320.19;5075866;28;45326;-74
2023/04/26 07:11:37;;;;;;;;;1.00;0.00;;;;;20.51;67.98;100316.06;5076609;27;45439;-73
2023/04/26 07:14:04;;;;;;;;;1.00;0.00;;;;;20.95;66.58;100311.00;5077237;28;45647;-72
2023/04/26 07:16:30;;;;;;;;;0.00;0.00;;;;;21.17;65.73;100300.91;5080029;27;46124;-75
2023/04/26 07:18:59;;;;;;;;;0.00;0.00;;;;;21.27;64.91;100315.81;5079324;27;45444;-73
2023/04/26 07:21:28;;;;;;;;;0.33;0.00;;;;;21.16;64.61;100304.47;5079343;27;45517;-73
2023/04/26 07:23:56;;;;;;;;;0.00;0.00;;;;;21.24;65.39;100307.88;5077637;27;45486;-78
2023/04/26 07:26:23;;;;;;;;;0.00;0.00;;;;;21.34;65.03;100320.09;5078080;28;45594;-73
2023/04/26 07:28:52;;;;;;;;;0.00;0.00;;;;;21.43;64.84;100309.34;5079650;27;45511;-73
2023/04/26 07:31:18;;;;;;;;;4.67;4.67;;;;;21.74;63.92;100303.41;5080199;27;45438;-77
2023/04/26 07:33:44;;;;;;;;;2.00;1.00;;;;;21.91;62.81;100289.78;5079614;28;45528;-81
2023/04/26 07:36:10;;;;;;;;;0.00;0.00;;;;;22.26;61.83;100293.50;5079855;28;45530;-79
2023/04/26 07:38:35;;;;;;;;;2.33;1.00;;;;;22.58;60.76;100303.44;5080048;27;45934;-76
2023/04/26 07:41:01;;;;;;;;;0.00;0.00;;;;;22.40;59.51;100235.53;5079324;27;45422;-80
2023/04/26 07:43:26;;;;;;;;;0.00;0.00;;;;;22.99;59.18;100312.19;5079616;27;45569;-80
2023/04/26 07:45:52;;;;;;;;;0.00;0.00;;;;;23.07;59.47;100303.16;5079106;28;45515;-79
2023/04/26 07:48:18;;;;;;;;;0.00;0.00;;;;;23.11;59.68;100311.03;5079688;27;45393;-77
2023/04/26 07:50:44;;;;;;;;;0.33;0.33;;;;;23.01;59.52;100312.16;5080392;27;45341;-79
2023/04/26 07:53:09;;;;;;;;;0.00;0.00;;;;;23.00;59.91;100321.06;5080564;27;45469;-74
2023/04/26 07:55:36;;;;;;;;;0.00;0.00;;;;;22.99;60.18;100319.31;5080050;27;46299;-74
2023/04/26 07:58:02;;;;;;;;;0.00;0.00;;;;;22.96;60.71;100314.03;5080246;27;45353;-73
2023/04/26 08:00:28;;;;;;;;;0.00;0.00;;;;;23.15;59.34;100304.72;5080296;28;45441;-79
2023/04/26 08:02:54;;;;;;;;;0.00;0.00;;;;;23.16;58.93;100289.63;5080115;27;45218;-73
2023/04/26 08:05:19;;;;;;;;;0.00;0.00;;;;;23.43;58.38;100296.84;5080135;28;45450;-78
2023/04/26 08:07:45;;;;;;;;;0.00;0.00;;;;;23.56;57.39;100296.53;5078666;28;45445;-76
2023/04/26 08:10:10;;;;;;;;;0.00;0.00;;;;;23.66;57.49;100306.03;5079987;27;45578;-78
2023/04/26 08:12:37;;;;;;;;;0.00;0.00;;;;;23.70;57.81;100312.16;5080174;27;45382;-74
2023/04/26 08:15:03;;;;;;;;;0.00;0.00;;;;;23.55;58.00;100303.66;5079745;28;46405;-74
2023/04/26 08:17:30;;;;;;;;;0.00;0.00;;;;;23.52;57.91;100300.22;5095392;27;45464;-78
2023/04/26 08:19:57;;;;;;;;;0.00;0.00;;;;;23.31;56.63;100307.84;5095877;27;45314;-80
2023/04/26 08:22:23;;;;;;;;;0.00;0.00;;;;;23.01;57.56;100285.50;5078676;28;45523;-73
2023/04/26 08:24:49;;;;;;;;;0.00;0.00;;;;;23.41;58.03;100304.03;5095304;27;46911;-73
2023/04/26 08:27:16;;;;;;;;;0.00;0.00;;;;;23.65;58.19;100303.41;5080118;27;45188;-80
2023/04/26 08:29:42;;;;;;;;;0.00;0.00;;;;;23.72;57.70;100299.66;5079871;27;45481;-77
2023/04/26 08:32:07;;;;;;;;;0.00;0.00;;;;;23.75;57.94;100305.75;5078567;28;45518;-74
2023/04/26 08:34:33;;;;;;;;;0.00;0.00;;;;;23.79;57.45;100303.91;5079688;27;46175;-80
2023/04/26 08:36:59;;;;;;;;;0.00;0.00;;;;;23.80;57.57;100303.88;5095129;27;45540;-74
2023/04/26 08:39:25;;;;;;;;;0.33;0.33;;;;;23.78;57.77;100288.84;5078281;28;45342;-80
2023/04/26 08:41:56;;;;;;;;;2.00;1.00;;;;;23.91;58.24;100300.88;5079510;27;45409;-74
2023/04/26 08:44:23;;;;;;;;;1.00;1.00;;;;;23.91;57.63;100290.22;5079413;27;46299;-78
2023/04/26 08:47:05;;;;;;;;;0.00;0.00;;;;;24.10;57.67;100298.56;5079916;28;45319;-75
2023/04/26 08:49:38;;;;;;;;;1.00;1.00;;;;;24.19;57.78;100294.72;5079275;27;45237;-80
2023/04/26 08:52:08;;;;;;;;;0.33;0.33;;;;;24.49;56.25;100303.63;5079668;27;45393;-78
2023/04/26 08:54:35;;;;;;;;;0.00;0.00;;;;;24.49;55.84;100273.34;5079095;27;46006;-79
2023/04/26 08:57:01;;;;;;;;;0.33;0.33;;;;;24.89;54.90;100298.78;5079118;28;45357;-79
2023/04/26 08:59:30;;;;;;;;;0.00;0.00;;;;;24.94;55.26;100273.66;5079039;28;45814;-74
2023/04/26 09:01:57;;;;;;;;;0.00;0.00;;;;;25.07;54.15;100284.84;5079456;27;45275;-78
2023/04/26 09:04:23;;;;;;;;;0.00;0.00;;;;;24.91;53.49;100283.59;5077357;28;47097;-79
2023/04/26 09:06:52;;;;;;;;;0.00;0.00;;;;;24.90;54.25;100272.03;5079416;27;45349;-79
2023/04/26 09:09:20;;;;;;;;;0.00;0.00;;;;;25.00;54.38;100283.28;5079300;27;45369;-79
2023/04/26 09:11:56;;;;;;;;;1.00;1.00;;;;;24.98;54.11;100295.81;5077857;28;45411;-75
2023/04/26 09:14:23;;;;;;;;;0.00;0.00;;;;;24.93;54.27;100271.94;5078628;28;46263;-75
2023/04/26 09:16:48;;;;;;;;;0.00;0.00;;;;;25.05;54.04;100289.34;5078505;27;45523;-77
2023/04/26 09:19:14;;;;;;;;;1.00;0.67;;;;;25.23;53.29;100276.28;5078721;27;45309;-80
2023/04/26 09:21:44;;;;;;;;;1.33;1.00;;;;;25.39;53.29;100280.19;5094151;27;45365;-80
2023/04/26 09:24:11;;;;;;;;;0.00;0.00;;;;;25.49;53.48;100281.59;5078116;27;45420;-79
2023/04/26 09:26:36;;;;;;;;;1.67;1.67;;;;;25.57;53.10;100274.19;5078509;27;45502;-78
2023/04/26 09:29:20;;;;;;;;;2.00;1.00;;;;;25.60;53.01;100266.06;5077124;28;45200;-76
2023/04/26 09:31:47;;;;;;;;;1.00;1.00;;;;;25.75;52.31;100282.47;5078332;27;45412;-78
2023/04/26 09:34:14;;;;;;;;;1.00;1.00;;;;;25.83;51.88;100272.34;5076650;28;46979;-80
2023/04/26 09:36:51;;;;;;;;;1.00;1.00;;;;;25.73;51.39;100257.56;5076215;28;45290;-80
2023/04/26 09:39:31;;;;;;;;;2.00;2.00;;;;;26.03;51.26;100274.28;5078663;27;45720;-77
2023/04/26 09:41:57;;;;;;;;;1.00;1.00;;;;;26.18;50.99;100275.50;5093873;27;45482;-80
2023/04/26 09:44:24;;;;;;;;;0.00;0.00;;;;;26.37;50.19;100281.88;5078141;27;45455;-75
2023/04/26 09:47:16;;;;;;;;;0.00;0.00;;;;;26.47;49.34;100281.50;5076777;28;45647;-75
2023/04/26 09:49:45;;;;;;;;;0.00;0.00;;;;;26.52;49.06;100260.75;5073104;28;45626;-74
2023/04/26 09:52:11;;;;;;;;;1.00;0.00;;;;;26.91;49.13;100263.63;5078342;27;45469;-79
2023/04/26 09:54:42;;;;;;;;;0.00;0.00;;;;;27.26;48.12;100268.47;5077651;27;45374;-77
2023/04/26 09:57:08;;;;;;;;;0.00;0.00;;;;;27.69;47.91;100258.47;5077752;27;45548;-79
2023/04/26 09:59:46;;;;;;;;;0.00;0.00;;;;;28.05;47.04;100265.78;5076880;28;45524;-75
2023/04/26 10:02:19;;;;;;;;;0.00;0.00;;;;;28.38;45.36;100260.63;5078291;27;45479;-81
2023/04/26 10:04:46;;;;;;;;;0.00;0.00;;;;;28.72;44.34;100256.31;5077762;27;45970;-80
2023/04/26 10:07:14;;;;;;;;;45.75;38.75;;;;;29.07;43.67;100257.22;5076903;27;45472;-79
2023/04/26 10:09:41;;;;;;;;;0.33;0.00;;;;;29.23;44.92;100251.94;5077936;27;45453;-80
2023/04/26 10:12:11;;;;;;;;;0.67;0.00;;;;;29.61;41.71;100245.47;5078104;27;45417;-74
2023/04/26 10:14:36;;;;;;;;;0.00;0.00;;;;;29.97;42.58;100241.75;5077563;27;45594;-81
2023/04/26 10:17:03;;;;;;;;;0.00;0.00;;;;;30.87;38.48;100244.63;5077519;27;45421;-80
2023/04/26 10:19:31;;;;;;;;;0.00;0.00;;;;;30.92;40.13;100223.69;5077508;28;45235;-78
2023/04/26 10:22:03;;;;;;;;;0.00;0.00;;;;;31.18;39.21;100237.44;5076696;28;45667;-81
2023/04/26 10:24:28;;;;;;;;;0.00;0.00;;;;;31.47;37.70;100227.56;5077453;27;45596;-81
2023/04/26 10:26:56;;;;;;;;;0.00;0.00;;;;;31.82;38.13;100220.91;5077783;27;45640;-75
2023/04/26 10:29:45;;;;;;;;;0.00;0.00;;;;;32.04;36.04;100236.66;5076585;28;45284;-81
2023/04/26 10:32:15;;;;;;;;;3.00;3.00;;;;;31.89;36.17;100223.13;5093429;27;45278;-81
2023/04/26 10:34:41;;;;;;;;;0.00;0.00;;;;;32.13;36.86;100229.75;5077514;27;45767;-80
2023/04/26 10:37:10;;;;;;;;;0.00;0.00;;;;;32.08;37.02;100227.38;5075379;28;45390;-78
2023/04/26 10:39:39;;;;;;;;;0.00;0.00;;;;;32.13;37.54;100218.97;5092948;27;45469;-80
2023/04/26 10:42:29;;;;;;;;;0.00;0.00;;;;;32.43;36.68;100229.56;5077438;27;45498;-78
2023/04/26 10:44:58;;;;;;;;;0.00;0.00;;;;;32.61;37.10;100225.69;5093469;27;46298;-80
2023/04/26 10:47:31;;;;;;;;;0.00;0.00;;;;;33.13;35.92;100220.41;5077316;27;45281;-74
2023/04/26 10:50:02;;;;;;;;;0.00;0.00;;;;;33.44;34.42;100230.81;5075500;28;45295;-73
2023/04/26 10:52:29;;;;;;;;;0.00;0.00;;;;;33.39;32.97;100229.44;5092829;27;45635;-80
2023/04/26 10:54:56;;;;;;;;;0.00;0.00;;;;;33.11;35.30;100225.06;5077102;27;46159;-77
2023/04/26 10:57:43;;;;;;;;;0.00;0.00;;;;;33.31;35.47;100224.56;5077211;27;45287;-76
2023/04/26 11:00:09;;;;;;;;;0.00;0.00;;;;;33.63;34.95;100232.25;5077042;28;45413;-75
2023/04/26 11:02:45;;;;;;;;;0.00;0.00;;;;;33.57;34.47;100203.75;5077277;27;45246;-80
2023/04/26 11:05:36;;;;;;;;;0.00;0.00;;;;;33.82;35.13;100239.91;5076827;27;45556;-81
2023/04/26 11:08:05;;;;;;;;;0.00;0.00;;;;;33.51;34.67;100233.13;5076883;27;45405;-79
2023/04/26 11:10:31;;;;;;;;;0.00;0.00;;;;;33.58;34.88;100240.66;5077012;27;45231;-80
2023/04/26 11:13:02;;;;;;;;;0.00;0.00;;;;;33.51;34.20;100223.13;5077175;27;45216;-75
2023/04/26 11:15:29;;;;;;;;;0.00;0.00;;;;;33.39;34.37;100213.19;5076703;27;45597;-80
2023/04/26 11:17:55;;;;;;;;;0.00;0.00;;;;;32.79;35.33;100195.63;5076856;27;45234;-81
2023/04/26 11:20:20;;;;;;;;;0.00;0.00;;;;;32.71;35.85;100204.31;5076852;28;45479;-78
2023/04/26 11:22:46;;;;;;;;;0.00;0.00;;;;;32.67;35.90;100213.59;5076765;27;45425;-76